createdAt,value
2022-10-02T00:02:23.066Z,101134.00
2022-10-02T00:05:13.555Z,101127.00
2022-10-02T00:08:12.540Z,101141.00
2022-10-02T00:10:48.535Z,101140.00
2022-10-02T00:13:28.857Z,101130.00
2022-10-02T00:15:58.120Z,101144.00
2022-10-02T00:18:36.073Z,101138.00
2022-10-02T00:21:33.311Z,101153.00
2022-10-02T00:24:05.896Z,101148.00
2022-10-02T00:27:26.901Z,101151.00
2022-10-02T00:30:00.222Z,101145.00
2022-10-02T00:32:57.310Z,101142.00
2022-10-02T00:35:45.616Z,101143.00
2022-10-02T00:38:28.352Z,101144.00
2022-10-02T00:41:26.195Z,101152.00
2022-10-02T00:44:35.501Z,101149.00
2022-10-02T00:48:04.296Z,101156.00
2022-10-02T00:51:02.902Z,101147.00
2022-10-02T00:53:52.764Z,101160.00
2022-10-02T00:56:34.213Z,101159.00
2022-10-02T00:59:55.274Z,101165.00
2022-10-02T01:02:53.618Z,101156.00
2022-10-02T01:05:21.540Z,101159.00
2022-10-02T01:07:54.107Z,101147.00
2022-10-02T01:10:25.666Z,101151.00
2022-10-02T01:12:55.732Z,101154.00
2022-10-02T01:15:32.038Z,101159.00
2022-10-02T01:18:00.176Z,101145.00
2022-10-02T01:20:36.738Z,101147.00
2022-10-02T01:23:16.892Z,101152.00
2022-10-02T01:25:44.530Z,101154.00
2022-10-02T01:28:12.518Z,101164.00
2022-10-02T01:30:44.613Z,101163.00
2022-10-02T01:33:14.358Z,101161.00
2022-10-02T01:35:42.448Z,101167.00
2022-10-02T01:38:16.292Z,101162.00
2022-10-02T01:40:43.627Z,101161.00
2022-10-02T01:43:18.530Z,101159.00
2022-10-02T01:46:24.653Z,101160.00
2022-10-02T01:49:22.934Z,101152.00
2022-10-02T01:52:17.914Z,101163.00
2022-10-02T01:55:15.166Z,101172.00
2022-10-02T01:57:48.050Z,101159.00
2022-10-02T02:00:20.823Z,101165.00
2022-10-02T02:02:56.747Z,101150.00
2022-10-02T02:06:09.865Z,101149.00
2022-10-02T02:08:49.481Z,101151.00
2022-10-02T02:11:22.121Z,101143.00
2022-10-02T02:14:30.571Z,101137.00
2022-10-02T02:17:13.026Z,101138.00
2022-10-02T02:19:56.870Z,101137.00
2022-10-02T02:22:44.477Z,101150.00
2022-10-02T02:25:20.431Z,101157.00
2022-10-02T02:28:00.185Z,101151.00
2022-10-02T02:30:31.792Z,101144.00
2022-10-02T02:33:08.532Z,101156.00
2022-10-02T02:35:45.379Z,101158.00
2022-10-02T02:38:21.781Z,101148.00
2022-10-02T02:40:50.270Z,101167.00
2022-10-02T02:43:27.595Z,101166.00
2022-10-02T02:46:02.017Z,101159.00
2022-10-02T02:48:41.838Z,101149.00
2022-10-02T02:51:29.917Z,101167.00
2022-10-02T02:54:13.015Z,101159.00
2022-10-02T02:56:42.925Z,101166.00
2022-10-02T02:59:14.303Z,101165.00
2022-10-02T03:01:42.747Z,101171.00
2022-10-02T03:04:14.019Z,101167.00
2022-10-02T03:06:56.064Z,101174.00
2022-10-02T03:09:26.495Z,101163.00
2022-10-02T03:12:24.166Z,101171.00
2022-10-02T03:15:29.111Z,101162.00
2022-10-02T03:18:26.086Z,101163.00
2022-10-02T03:21:16.539Z,101168.00
2022-10-02T03:24:36.546Z,101167.00
2022-10-02T03:27:12.390Z,101160.00
2022-10-02T03:29:50.299Z,101153.00
2022-10-02T03:32:20.350Z,101168.00
2022-10-02T03:34:49.860Z,101152.00
2022-10-02T03:37:18.591Z,101156.00
2022-10-02T03:39:46.052Z,101168.00
2022-10-02T03:42:15.557Z,101157.00
2022-10-02T03:44:44.199Z,101162.00
2022-10-02T03:47:11.587Z,101156.00
2022-10-02T03:49:39.723Z,101156.00
2022-10-02T03:52:06.925Z,101149.00
2022-10-02T03:54:36.962Z,101146.00
2022-10-02T03:57:08.426Z,101162.00
2022-10-02T04:00:08.254Z,101159.00
2022-10-02T04:02:49.035Z,101152.00
2022-10-02T04:05:36.810Z,101158.00
2022-10-02T04:08:18.116Z,101155.00
2022-10-02T04:10:54.523Z,101152.00
2022-10-02T04:13:34.096Z,101154.00
2022-10-02T04:16:17.102Z,101149.00
2022-10-02T04:18:57.983Z,101151.00
2022-10-02T04:21:40.869Z,101152.00
2022-10-02T04:24:24.247Z,101151.00
2022-10-02T04:27:18.508Z,101164.00
2022-10-02T04:30:02.968Z,101162.00
2022-10-02T04:32:33.983Z,101158.00
2022-10-02T04:35:02.981Z,101163.00
2022-10-02T04:38:14.023Z,101155.00
2022-10-02T04:41:02.897Z,101164.00
2022-10-02T04:43:54.687Z,101165.00
2022-10-02T04:46:42.061Z,101175.00
2022-10-02T04:49:36.524Z,101172.00
2022-10-02T04:52:32.938Z,101175.00
2022-10-02T04:55:25.552Z,101178.00
2022-10-02T04:58:21.670Z,101182.00
2022-10-02T05:01:39.537Z,101183.00
2022-10-02T05:05:19.896Z,101183.00
2022-10-02T05:08:07.298Z,101192.00
2022-10-02T05:10:43.621Z,101179.00
2022-10-02T05:13:55.245Z,101187.00
2022-10-02T05:16:46.513Z,101195.00
2022-10-02T05:19:19.213Z,101196.00
2022-10-02T05:22:16.603Z,101207.00
2022-10-02T05:25:12.954Z,101214.00
2022-10-02T05:28:05.799Z,101199.00
2022-10-02T05:30:54.151Z,101207.00
2022-10-02T05:33:41.830Z,101210.00
2022-10-02T05:36:49.655Z,101207.00
2022-10-02T05:39:41.641Z,101196.00
2022-10-02T05:42:33.661Z,101188.00
2022-10-02T05:45:11.943Z,101203.00
2022-10-02T05:47:47.332Z,101211.00
2022-10-02T05:50:24.160Z,101211.00
2022-10-02T05:53:05.287Z,101219.00
2022-10-02T05:55:49.445Z,101223.00
2022-10-02T05:58:51.535Z,101224.00
2022-10-02T06:01:34.254Z,101228.00
2022-10-02T06:04:13.290Z,101224.00
2022-10-02T06:06:51.966Z,101232.00
2022-10-02T06:09:41.148Z,101225.00
2022-10-02T06:12:17.872Z,101227.00
2022-10-02T06:15:00.246Z,101242.00
2022-10-02T06:17:42.987Z,101238.00
2022-10-02T06:20:55.750Z,101246.00
2022-10-02T06:23:35.034Z,101246.00
2022-10-02T06:26:16.581Z,101245.00
2022-10-02T06:29:03.654Z,101241.00
2022-10-02T06:32:05.399Z,101251.00
2022-10-02T06:34:32.683Z,101244.00
2022-10-02T06:37:39.806Z,101252.00
2022-10-02T06:40:22.011Z,101255.00
2022-10-02T06:43:18.211Z,101265.00
2022-10-02T06:46:14.430Z,101265.00
2022-10-02T06:49:01.901Z,101272.00
2022-10-02T06:51:58.188Z,101260.00
2022-10-02T06:55:05.653Z,101266.00
2022-10-02T06:58:06.656Z,101272.00
2022-10-02T07:00:56.805Z,101276.00
2022-10-02T07:03:51.325Z,101265.00
2022-10-02T07:06:26.312Z,101265.00
2022-10-02T07:09:44.197Z,101274.00
2022-10-02T07:12:27.373Z,101280.00
2022-10-02T07:15:26.257Z,101282.00
2022-10-02T07:18:02.137Z,101286.00
2022-10-02T07:21:08.627Z,101284.00
2022-10-02T07:24:02.475Z,101290.00
2022-10-02T07:27:06.750Z,101293.00
2022-10-02T07:30:07.239Z,101293.00
2022-10-02T07:33:10.140Z,101293.00
2022-10-02T07:35:59.084Z,101305.00
2022-10-02T07:39:12.977Z,101304.00
2022-10-02T07:42:09.829Z,101307.00
2022-10-02T07:44:59.324Z,101309.00
2022-10-02T07:48:06.408Z,101312.00
2022-10-02T07:51:27.135Z,101314.00
2022-10-02T07:54:27.242Z,101322.00
2022-10-02T07:57:09.024Z,101325.00
2022-10-02T07:59:43.766Z,101323.00
2022-10-02T08:02:32.749Z,101333.00
2022-10-02T08:05:07.450Z,101319.00
2022-10-02T08:07:35.292Z,101337.00
2022-10-02T08:10:11.891Z,101340.00
2022-10-02T08:12:50.124Z,101326.00
2022-10-02T08:15:22.484Z,101333.00
2022-10-02T08:18:22.821Z,101334.00
2022-10-02T08:20:51.505Z,101345.00
2022-10-02T08:23:53.932Z,101341.00
2022-10-02T08:26:37.184Z,101349.00
2022-10-02T08:29:20.179Z,101351.00
2022-10-02T08:31:48.191Z,101350.00
2022-10-02T08:34:22.109Z,101352.00
2022-10-02T08:37:11.670Z,101348.00
2022-10-02T08:40:20.129Z,101355.00
2022-10-02T08:43:21.562Z,101348.00
2022-10-02T08:46:31.770Z,101367.00
2022-10-02T08:49:16.804Z,101369.00
2022-10-02T08:52:20.778Z,101371.00
2022-10-02T08:55:33.219Z,101375.00
2022-10-02T08:58:22.162Z,101381.00
2022-10-02T09:01:18.887Z,101367.00
2022-10-02T09:05:03.175Z,101378.00
2022-10-02T09:08:15.460Z,101376.00
2022-10-02T09:11:22.555Z,101370.00
2022-10-02T09:14:27.643Z,101374.00
2022-10-02T09:17:38.033Z,101388.00
2022-10-02T09:20:05.176Z,101385.00
2022-10-02T09:23:06.092Z,101377.00
2022-10-02T09:26:09.148Z,101380.00
2022-10-02T09:28:57.610Z,101389.00
2022-10-02T09:31:40.359Z,101383.00
2022-10-02T09:34:42.562Z,101382.00
2022-10-02T09:38:11.217Z,101387.00
2022-10-02T09:41:12.777Z,101388.00
2022-10-02T09:44:34.283Z,101393.00
2022-10-02T09:47:44.258Z,101398.00
2022-10-02T09:50:30.238Z,101403.00
2022-10-02T09:53:38.023Z,101396.00
2022-10-02T09:56:29.591Z,101391.00
2022-10-02T09:59:30.073Z,101405.00
2022-10-02T10:02:39.215Z,101405.00
2022-10-02T10:05:36.392Z,101410.00
2022-10-02T10:08:29.141Z,101405.00
2022-10-02T10:11:37.076Z,101414.00
2022-10-02T10:14:24.432Z,101411.00
2022-10-02T10:17:09.895Z,101415.00
2022-10-02T10:20:08.984Z,101416.00
2022-10-02T10:23:07.337Z,101419.00
2022-10-02T10:25:50.460Z,101420.00
2022-10-02T10:28:20.323Z,101430.00
2022-10-02T10:31:24.203Z,101433.00
2022-10-02T10:34:09.241Z,101423.00
2022-10-02T10:37:20.576Z,101433.00
2022-10-02T10:40:25.631Z,101442.00
2022-10-02T10:43:32.416Z,101451.00
2022-10-02T10:46:41.624Z,101447.00
2022-10-02T10:49:46.280Z,101457.00
2022-10-02T10:52:51.813Z,101455.00
2022-10-02T10:56:02.522Z,101468.00
2022-10-02T10:58:54.114Z,101466.00
2022-10-02T11:01:46.876Z,101463.00
2022-10-02T11:04:53.002Z,101468.00
2022-10-02T11:08:22.126Z,101468.00
2022-10-02T11:11:07.963Z,101482.00
2022-10-02T11:13:43.226Z,101484.00
2022-10-02T11:16:27.569Z,101486.00
2022-10-02T11:19:32.387Z,101486.00
2022-10-02T11:22:35.326Z,101481.00
2022-10-02T11:25:34.983Z,101487.00
2022-10-02T11:28:23.227Z,101468.00
2022-10-02T11:31:11.467Z,101470.00
2022-10-02T11:34:08.691Z,101474.00
2022-10-02T11:36:59.840Z,101473.00
2022-10-02T11:39:32.779Z,101471.00
2022-10-02T11:42:19.688Z,101480.00
2022-10-02T11:45:08.884Z,101485.00
2022-10-02T11:48:18.869Z,101483.00
2022-10-02T11:51:16.217Z,101484.00
2022-10-02T11:54:12.684Z,101484.00
2022-10-02T11:56:45.471Z,101478.00
2022-10-02T11:59:47.663Z,101480.00
2022-10-02T12:02:32.989Z,101473.00
2022-10-02T12:05:55.363Z,101485.00
2022-10-02T12:09:10.240Z,101488.00
2022-10-02T12:12:00.530Z,101484.00
2022-10-02T12:15:09.225Z,101480.00
2022-10-02T12:18:08.038Z,101484.00
2022-10-02T12:21:25.266Z,101481.00
2022-10-02T12:24:29.682Z,101484.00
2022-10-02T12:27:41.410Z,101490.00
2022-10-02T12:30:23.455Z,101483.00
2022-10-02T12:33:01.943Z,101494.00
2022-10-02T12:36:22.336Z,101497.00
2022-10-02T12:39:21.896Z,101500.00
2022-10-02T12:42:12.057Z,101497.00
2022-10-02T12:45:19.364Z,101499.00
2022-10-02T12:48:11.855Z,101503.00
2022-10-02T12:50:48.024Z,101506.00
2022-10-02T12:54:00.871Z,101507.00
2022-10-02T12:57:01.336Z,101516.00
2022-10-02T13:00:00.554Z,101522.00
2022-10-02T13:03:42.886Z,101520.00
2022-10-02T13:06:40.624Z,101519.00
2022-10-02T13:09:36.581Z,101526.00
2022-10-02T13:12:38.052Z,101531.00
2022-10-02T13:15:29.722Z,101524.00
2022-10-02T13:18:43.985Z,101533.00
2022-10-02T13:21:23.983Z,101525.00
2022-10-02T13:24:19.783Z,101533.00
2022-10-02T13:27:02.499Z,101529.00
2022-10-02T13:29:43.058Z,101530.00
2022-10-02T13:32:45.554Z,101529.00
2022-10-02T13:35:53.004Z,101536.00
2022-10-02T13:38:50.828Z,101541.00
2022-10-02T13:41:30.085Z,101535.00
2022-10-02T13:44:18.643Z,101537.00
2022-10-02T13:47:12.242Z,101547.00
2022-10-02T13:50:15.311Z,101551.00
2022-10-02T13:53:34.282Z,101549.00
2022-10-02T13:56:29.048Z,101546.00
2022-10-02T13:59:17.150Z,101550.00
2022-10-02T14:02:18.230Z,101548.00
2022-10-02T14:05:17.454Z,101554.00
2022-10-02T14:08:19.781Z,101550.00
2022-10-02T14:11:15.920Z,101544.00
2022-10-02T14:14:03.167Z,101557.00
2022-10-02T14:16:47.418Z,101558.00
2022-10-02T14:19:23.631Z,101565.00
2022-10-02T14:22:26.758Z,101555.00
2022-10-02T14:25:05.729Z,101553.00
2022-10-02T14:28:03.098Z,101553.00
2022-10-02T14:31:17.521Z,101551.00
2022-10-02T14:34:28.105Z,101549.00
2022-10-02T14:37:36.135Z,101554.00
2022-10-02T14:40:14.732Z,101558.00
2022-10-02T14:43:08.154Z,101566.00
2022-10-02T14:46:11.721Z,101556.00
2022-10-02T14:49:15.122Z,101563.00
2022-10-02T14:52:23.994Z,101566.00
2022-10-02T14:54:54.361Z,101568.00
2022-10-02T14:58:14.860Z,101559.00
2022-10-02T15:01:27.165Z,101565.00
2022-10-02T15:04:38.082Z,101576.00
2022-10-02T15:07:23.126Z,101572.00
2022-10-02T15:10:28.572Z,101585.00
2022-10-02T15:13:36.804Z,101580.00
2022-10-02T15:16:40.282Z,101575.00
2022-10-02T15:19:50.062Z,101576.00
2022-10-02T15:22:36.018Z,101573.00
2022-10-02T15:25:33.242Z,101583.00
2022-10-02T15:28:44.052Z,101588.00
2022-10-02T15:31:59.288Z,101594.00
2022-10-02T15:34:30.260Z,101597.00
2022-10-02T15:37:35.845Z,101607.00
2022-10-02T15:40:47.591Z,101608.00
2022-10-02T15:43:18.184Z,101618.00
2022-10-02T15:46:03.024Z,101615.00
2022-10-02T15:49:04.842Z,101629.00
2022-10-02T15:52:15.293Z,101634.00
2022-10-02T15:55:27.933Z,101639.00
2022-10-02T15:58:45.069Z,101639.00
2022-10-02T16:01:41.545Z,101638.00
2022-10-02T16:04:41.140Z,101646.00
2022-10-02T16:07:36.419Z,101654.00
2022-10-02T16:10:48.016Z,101654.00
2022-10-02T16:13:47.168Z,101670.00
2022-10-02T16:16:32.894Z,101670.00
2022-10-02T16:19:33.389Z,101673.00
2022-10-02T16:22:39.519Z,101676.00
2022-10-02T16:25:24.732Z,101676.00
2022-10-02T16:28:12.097Z,101681.00
2022-10-02T16:30:51.391Z,101689.00
2022-10-02T16:33:44.077Z,101700.00
2022-10-02T16:36:34.675Z,101702.00
2022-10-02T16:39:10.845Z,101712.00
2022-10-02T16:42:04.152Z,101716.00
2022-10-02T16:44:50.213Z,101719.00
2022-10-02T16:47:43.167Z,101726.00
2022-10-02T16:51:05.545Z,101732.00
2022-10-02T16:53:44.611Z,101736.00
2022-10-02T16:56:16.810Z,101750.00
2022-10-02T16:59:15.702Z,101749.00
2022-10-02T17:02:28.281Z,101754.00
2022-10-02T17:05:45.869Z,101761.00
2022-10-02T17:08:29.193Z,101760.00
2022-10-02T17:11:30.296Z,101780.00
2022-10-02T17:14:18.492Z,101783.00
2022-10-02T17:16:57.965Z,101784.00
2022-10-02T17:20:02.143Z,101799.00
2022-10-02T17:22:51.203Z,101802.00
2022-10-02T17:25:44.672Z,101805.00
2022-10-02T17:28:36.075Z,101814.00
2022-10-02T17:31:35.956Z,101824.00
2022-10-02T17:34:22.766Z,101823.00
2022-10-02T17:37:04.859Z,101827.00
2022-10-02T17:39:59.731Z,101827.00
2022-10-02T17:42:48.447Z,101840.00
2022-10-02T17:46:01.180Z,101847.00
2022-10-02T17:48:52.789Z,101856.00
2022-10-02T17:52:19.614Z,101851.00
2022-10-02T17:55:39.377Z,101853.00
2022-10-02T17:58:42.969Z,101861.00
2022-10-02T18:01:45.169Z,101872.00
2022-10-02T18:04:24.286Z,101870.00
2022-10-02T18:07:21.029Z,101880.00
2022-10-02T18:10:33.112Z,101877.00
2022-10-02T18:13:19.957Z,101882.00
2022-10-02T18:16:15.626Z,101881.00
2022-10-02T18:19:24.415Z,101901.00
2022-10-02T18:22:48.348Z,101903.00
2022-10-02T18:25:57.303Z,101915.00
2022-10-02T18:28:46.264Z,101916.00
2022-10-02T18:32:01.018Z,101920.00
2022-10-02T18:34:56.118Z,101931.00
2022-10-02T18:37:44.247Z,101940.00
2022-10-02T18:40:30.941Z,101934.00
2022-10-02T18:43:47.989Z,101941.00
2022-10-02T18:47:09.938Z,101944.00
2022-10-02T18:50:09.933Z,101944.00
2022-10-02T18:53:01.333Z,101951.00
2022-10-02T18:55:47.579Z,101956.00
2022-10-02T18:58:46.296Z,101957.00
2022-10-02T19:01:41.039Z,101957.00
2022-10-02T19:04:28.362Z,101964.00
2022-10-02T19:07:38.939Z,101965.00
2022-10-02T19:10:40.491Z,101971.00
2022-10-02T19:13:17.776Z,101981.00
2022-10-02T19:15:48.718Z,101972.00
2022-10-02T19:18:33.652Z,101977.00
2022-10-02T19:21:16.756Z,101982.00
2022-10-02T19:24:24.523Z,101984.00
2022-10-02T19:27:10.538Z,101988.00
2022-10-02T19:29:56.653Z,101996.00
2022-10-02T19:32:41.412Z,101997.00
2022-10-02T19:35:24.248Z,102000.00
2022-10-02T19:38:08.618Z,102001.00
2022-10-02T19:40:37.781Z,101994.00
2022-10-02T19:43:24.886Z,102001.00
2022-10-02T19:45:57.360Z,102011.00
2022-10-02T19:48:31.232Z,102013.00
2022-10-02T19:51:08.080Z,102008.00
2022-10-02T19:53:50.729Z,102013.00
2022-10-02T19:56:47.682Z,102015.00
2022-10-02T19:59:25.602Z,102021.00
2022-10-02T20:01:56.394Z,102010.00
2022-10-02T20:04:28.835Z,102011.00
2022-10-02T20:06:59.971Z,102020.00
2022-10-02T20:10:05.248Z,102028.00
2022-10-02T20:13:16.951Z,102028.00
2022-10-02T20:16:35.797Z,102042.00
2022-10-02T20:19:30.748Z,102047.00
2022-10-02T20:22:16.195Z,102054.00
2022-10-02T20:24:54.525Z,102065.00
2022-10-02T20:27:53.882Z,102044.00
2022-10-02T20:30:30.072Z,102064.00
2022-10-02T20:33:21.045Z,102069.00
2022-10-02T20:36:01.832Z,102073.00
2022-10-02T20:38:35.258Z,102070.00
2022-10-02T20:41:12.438Z,102078.00
2022-10-02T20:44:02.306Z,102088.00
2022-10-02T20:47:08.198Z,102096.00
2022-10-02T20:49:53.973Z,102110.00
2022-10-02T20:52:50.371Z,102108.00
2022-10-02T20:56:16.516Z,102110.00
2022-10-02T20:59:18.886Z,102084.00
2022-10-02T21:02:09.144Z,102097.00
2022-10-02T21:05:04.009Z,102100.00
2022-10-02T21:07:51.478Z,102105.00
2022-10-02T21:10:50.962Z,102114.00
2022-10-02T21:13:46.798Z,102114.00
2022-10-02T21:16:36.343Z,102125.00
2022-10-02T21:19:49.302Z,102129.00
2022-10-02T21:23:09.096Z,102119.00
2022-10-02T21:26:00.701Z,102135.00
2022-10-02T21:28:51.913Z,102136.00
2022-10-02T21:31:50.751Z,102148.00
2022-10-02T21:34:55.350Z,102157.00
2022-10-02T21:37:44.929Z,102156.00
2022-10-02T21:41:21.555Z,102164.00
2022-10-02T21:44:35.835Z,102160.00
2022-10-02T21:47:45.446Z,102176.00
2022-10-02T21:50:50.839Z,102172.00
2022-10-02T21:54:11.864Z,102184.00
2022-10-02T21:57:15.939Z,102185.00
2022-10-02T21:59:54.944Z,102171.00
2022-10-02T22:03:12.371Z,102175.00
2022-10-02T22:06:17.340Z,102183.00
2022-10-02T22:09:17.956Z,102189.00
2022-10-02T22:12:08.540Z,102186.00
2022-10-02T22:14:53.998Z,102191.00
2022-10-02T22:18:05.656Z,102198.00
2022-10-02T22:21:00.900Z,102205.00
2022-10-02T22:24:05.186Z,102207.00
2022-10-02T22:27:16.728Z,102197.00
2022-10-02T22:29:49.717Z,102207.00
2022-10-02T22:33:12.429Z,102213.00
2022-10-02T22:35:51.452Z,102216.00
2022-10-02T22:38:40.366Z,102208.00
2022-10-02T22:41:26.800Z,102217.00
2022-10-02T22:44:38.867Z,102210.00
2022-10-02T22:47:49.729Z,102221.00
2022-10-02T22:50:48.275Z,102218.00
2022-10-02T22:53:21.070Z,102216.00
2022-10-02T22:55:53.956Z,102199.00
2022-10-02T22:58:48.147Z,102212.00
2022-10-02T23:01:28.202Z,102204.00
2022-10-02T23:04:24.871Z,102205.00
2022-10-02T23:07:16.819Z,102203.00
2022-10-02T23:09:57.843Z,102212.00
2022-10-02T23:12:49.946Z,102207.00
2022-10-02T23:16:12.928Z,102218.00
2022-10-02T23:19:12.672Z,102215.00
2022-10-02T23:21:52.261Z,102213.00
2022-10-02T23:24:34.086Z,102218.00
2022-10-02T23:27:54.002Z,102220.00
2022-10-02T23:30:23.831Z,102222.00
2022-10-02T23:33:12.332Z,102218.00
2022-10-02T23:35:48.301Z,102228.00
2022-10-02T23:38:29.583Z,102232.00
2022-10-02T23:41:39.482Z,102237.00
2022-10-02T23:44:29.446Z,102221.00
2022-10-02T23:47:25.533Z,102231.00
2022-10-02T23:49:55.476Z,102229.00
2022-10-02T23:52:57.795Z,102240.00
2022-10-02T23:56:00.312Z,102245.00
2022-10-02T23:59:47.785Z,102250.00
